sensor_id;sensor_type;location;lat;lon;timestamp;temperature;humidity
7317;DHT22;3699;51.462;6.696;2024-01-07T00:00:18;3.70;99.90
7317;DHT22;3699;51.462;6.696;2024-01-07T00:02:45;3.70;99.90
7317;DHT22;3699;51.462;6.696;2024-01-07T00:05:12;3.80;99.90
7317;DHT22;3699;51.462;6.696;2024-01-07T00:07:38;3.80;99.90
7317;DHT22;3699;51.462;6.696;2024-01-07T00:10:06;3.80;99.90
7317;DHT22;3699;51.462;6.696;2024-01-07T00:12:35;3.80;99.90
7317;DHT22;3699;51.462;6.696;2024-01-07T00:15:02;3.80;99.90
7317;DHT22;3699;51.462;6.696;2024-01-07T00:17:29;3.70;99.90
7317;DHT22;3699;51.462;6.696;2024-01-07T00:23:18;3.70;99.90
7317;DHT22;3699;51.462;6.696;2024-01-07T00:25:46;3.70;99.90
7317;DHT22;3699;51.462;6.696;2024-01-07T00:28:14;3.70;99.90
7317;DHT22;3699;51.462;6.696;2024-01-07T00:30:41;3.70;99.90
7317;DHT22;3699;51.462;6.696;2024-01-07T00:33:07;3.70;99.90
7317;DHT22;3699;51.462;6.696;2024-01-07T00:35:34;3.70;99.90
7317;DHT22;3699;51.462;6.696;2024-01-07T00:38:01;3.60;99.90
7317;DHT22;3699;51.462;6.696;2024-01-07T00:40:28;3.60;99.90
7317;DHT22;3699;51.462;6.696;2024-01-07T00:42:54;3.70;99.90
7317;DHT22;3699;51.462;6.696;2024-01-07T00:45:22;3.60;99.90
7317;DHT22;3699;51.462;6.696;2024-01-07T00:47:49;4.40;99.90
7317;DHT22;3699;51.462;6.696;2024-01-07T00:50:16;3.50;99.90
7317;DHT22;3699;51.462;6.696;2024-01-07T00:52:42;3.50;99.90
7317;DHT22;3699;51.462;6.696;2024-01-07T00:55:11;3.50;99.90
7317;DHT22;3699;51.462;6.696;2024-01-07T00:57:37;3.50;99.90
7317;DHT22;3699;51.462;6.696;2024-01-07T01:00:06;3.50;99.90
7317;DHT22;3699;51.462;6.696;2024-01-07T01:02:34;3.50;99.90
7317;DHT22;3699;51.462;6.696;2024-01-07T01:05:02;3.50;99.90
7317;DHT22;3699;51.462;6.696;2024-01-07T01:07:29;3.50;99.90
7317;DHT22;3699;51.462;6.696;2024-01-07T01:09:55;3.50;99.90
7317;DHT22;3699;51.462;6.696;2024-01-07T01:12:22;3.50;99.90
7317;DHT22;3699;51.462;6.696;2024-01-07T01:14:49;3.50;99.90
7317;DHT22;3699;51.462;6.696;2024-01-07T01:17:16;3.40;99.90
7317;DHT22;3699;51.462;6.696;2024-01-07T01:19:44;6.40;99.90
7317;DHT22;3699;51.462;6.696;2024-01-07T01:22:10;3.50;99.90
7317;DHT22;3699;51.462;6.696;2024-01-07T01:24:37;3.40;99.90
7317;DHT22;3699;51.462;6.696;2024-01-07T01:27:04;3.50;99.90
7317;DHT22;3699;51.462;6.696;2024-01-07T01:29:31;3.50;99.90
7317;DHT22;3699;51.462;6.696;2024-01-07T01:31:58;3.50;99.90
7317;DHT22;3699;51.462;6.696;2024-01-07T01:34:25;3.50;99.90
7317;DHT22;3699;51.462;6.696;2024-01-07T01:36:53;3.40;99.90
7317;DHT22;3699;51.462;6.696;2024-01-07T01:39:20;3.40;99.90
7317;DHT22;3699;51.462;6.696;2024-01-07T01:41:46;3.40;99.90
7317;DHT22;3699;51.462;6.696;2024-01-07T01:44:13;3.30;99.90
7317;DHT22;3699;51.462;6.696;2024-01-07T01:46:40;3.30;99.90
7317;DHT22;3699;51.462;6.696;2024-01-07T01:49:07;3.40;99.90
7317;DHT22;3699;51.462;6.696;2024-01-07T01:51:34;3.30;99.90
7317;DHT22;3699;51.462;6.696;2024-01-07T01:54:02;3.30;99.90
7317;DHT22;3699;51.462;6.696;2024-01-07T01:56:29;3.30;99.90
7317;DHT22;3699;51.462;6.696;2024-01-07T01:58:56;5.50;99.90
7317;DHT22;3699;51.462;6.696;2024-01-07T02:01:23;3.30;99.90
7317;DHT22;3699;51.462;6.696;2024-01-07T02:03:50;4.10;99.90
7317;DHT22;3699;51.462;6.696;2024-01-07T02:06:19;4.70;99.90
7317;DHT22;3699;51.462;6.696;2024-01-07T02:08:47;3.40;99.90
7317;DHT22;3699;51.462;6.696;2024-01-07T02:11:20;3.30;99.90
7317;DHT22;3699;51.462;6.696;2024-01-07T02:13:47;2.90;99.90
7317;DHT22;3699;51.462;6.696;2024-01-07T02:16:14;3.30;99.90
7317;DHT22;3699;51.462;6.696;2024-01-07T02:18:42;3.30;99.90
7317;DHT22;3699;51.462;6.696;2024-01-07T02:21:10;3.30;99.90
7317;DHT22;3699;51.462;6.696;2024-01-07T02:27:00;3.30;99.90
7317;DHT22;3699;51.462;6.696;2024-01-07T02:29:27;3.20;99.90
7317;DHT22;3699;51.462;6.696;2024-01-07T02:31:54;3.30;99.90
7317;DHT22;3699;51.462;6.696;2024-01-07T02:34:21;3.20;99.90
7317;DHT22;3699;51.462;6.696;2024-01-07T02:36:48;2.90;99.90
7317;DHT22;3699;51.462;6.696;2024-01-07T02:39:14;3.20;99.90
7317;DHT22;3699;51.462;6.696;2024-01-07T02:41:41;2.70;99.90
7317;DHT22;3699;51.462;6.696;2024-01-07T02:44:09;3.10;99.90
7317;DHT22;3699;51.462;6.696;2024-01-07T02:46:36;5.60;99.90
7317;DHT22;3699;51.462;6.696;2024-01-07T02:49:03;3.20;99.90
7317;DHT22;3699;51.462;6.696;2024-01-07T02:51:30;3.10;99.90
7317;DHT22;3699;51.462;6.696;2024-01-07T02:53:56;3.20;99.90
7317;DHT22;3699;51.462;6.696;2024-01-07T02:56:23;3.10;99.90
7317;DHT22;3699;51.462;6.696;2024-01-07T02:58:50;3.10;99.90
7317;DHT22;3699;51.462;6.696;2024-01-07T03:01:20;3.10;99.90
7317;DHT22;3699;51.462;6.696;2024-01-07T03:03:47;3.20;99.90
7317;DHT22;3699;51.462;6.696;2024-01-07T03:06:14;3.10;99.90
7317;DHT22;3699;51.462;6.696;2024-01-07T03:08:41;3.20;99.90
7317;DHT22;3699;51.462;6.696;2024-01-07T03:11:08;3.30;99.90
7317;DHT22;3699;51.462;6.696;2024-01-07T03:13:35;3.30;99.90
7317;DHT22;3699;51.462;6.696;2024-01-07T03:16:02;3.20;99.90
7317;DHT22;3699;51.462;6.696;2024-01-07T03:18:30;3.20;99.90
7317;DHT22;3699;51.462;6.696;2024-01-07T03:20:57;3.20;99.90
7317;DHT22;3699;51.462;6.696;2024-01-07T03:23:23;3.20;99.90
7317;DHT22;3699;51.462;6.696;2024-01-07T03:25:50;3.10;99.90
7317;DHT22;3699;51.462;6.696;2024-01-07T03:28:17;3.10;99.90
7317;DHT22;3699;51.462;6.696;2024-01-07T03:30:44;2.90;99.90
7317;DHT22;3699;51.462;6.696;2024-01-07T03:36:34;2.90;99.90
7317;DHT22;3699;51.462;6.696;2024-01-07T03:39:00;2.90;99.90
7317;DHT22;3699;51.462;6.696;2024-01-07T03:41:27;2.90;99.90
7317;DHT22;3699;51.462;6.696;2024-01-07T03:43:54;2.90;99.90
7317;DHT22;3699;51.462;6.696;2024-01-07T03:46:22;2.80;99.90
7317;DHT22;3699;51.462;6.696;2024-01-07T03:48:49;2.80;99.90
7317;DHT22;3699;51.462;6.696;2024-01-07T03:51:15;4.20;99.90
7317;DHT22;3699;51.462;6.696;2024-01-07T03:53:43;2.80;99.90
7317;DHT22;3699;51.462;6.696;2024-01-07T03:56:10;5.90;99.90
7317;DHT22;3699;51.462;6.696;2024-01-07T03:58:37;2.80;99.90
7317;DHT22;3699;51.462;6.696;2024-01-07T04:01:03;2.90;99.90
7317;DHT22;3699;51.462;6.696;2024-01-07T04:03:30;2.70;99.90
7317;DHT22;3699;51.462;6.696;2024-01-07T04:05:57;2.80;99.90
7317;DHT22;3699;51.462;6.696;2024-01-07T04:08:24;2.80;99.90
7317;DHT22;3699;51.462;6.696;2024-01-07T04:10:52;2.70;99.90
7317;DHT22;3699;51.462;6.696;2024-01-07T04:13:18;2.70;99.90
7317;DHT22;3699;51.462;6.696;2024-01-07T04:15:45;2.70;99.90
7317;DHT22;3699;51.462;6.696;2024-01-07T04:18:12;2.60;99.90
7317;DHT22;3699;51.462;6.696;2024-01-07T04:20:39;4.40;99.90
7317;DHT22;3699;51.462;6.696;2024-01-07T04:23:06;2.60;99.90
7317;DHT22;3699;51.462;6.696;2024-01-07T04:25:32;2.50;99.90
7317;DHT22;3699;51.462;6.696;2024-01-07T04:31:22;2.50;99.90
7317;DHT22;3699;51.462;6.696;2024-01-07T04:33:49;2.40;99.90
7317;DHT22;3699;51.462;6.696;2024-01-07T04:36:16;2.40;99.90
7317;DHT22;3699;51.462;6.696;2024-01-07T04:38:43;2.30;99.90
7317;DHT22;3699;51.462;6.696;2024-01-07T04:41:09;2.30;99.90
7317;DHT22;3699;51.462;6.696;2024-01-07T04:43:36;2.30;99.90
7317;DHT22;3699;51.462;6.696;2024-01-07T04:46:03;2.40;99.90
7317;DHT22;3699;51.462;6.696;2024-01-07T04:48:31;2.40;99.90
7317;DHT22;3699;51.462;6.696;2024-01-07T04:50:58;2.50;99.90
7317;DHT22;3699;51.462;6.696;2024-01-07T04:53:25;2.40;99.90
7317;DHT22;3699;51.462;6.696;2024-01-07T04:55:51;2.40;99.90
7317;DHT22;3699;51.462;6.696;2024-01-07T04:58:18;2.50;99.90
7317;DHT22;3699;51.462;6.696;2024-01-07T05:00:45;2.40;99.90
7317;DHT22;3699;51.462;6.696;2024-01-07T05:03:11;2.50;99.90
7317;DHT22;3699;51.462;6.696;2024-01-07T05:05:39;2.40;99.90
7317;DHT22;3699;51.462;6.696;2024-01-07T05:08:06;2.60;99.90
7317;DHT22;3699;51.462;6.696;2024-01-07T05:10:33;2.50;99.90
7317;DHT22;3699;51.462;6.696;2024-01-07T05:13:00;2.50;99.90
7317;DHT22;3699;51.462;6.696;2024-01-07T05:15:30;2.60;99.90
7317;DHT22;3699;51.462;6.696;2024-01-07T05:17:57;2.60;99.90
7317;DHT22;3699;51.462;6.696;2024-01-07T05:20:23;2.60;99.90
7317;DHT22;3699;51.462;6.696;2024-01-07T05:26:13;2.40;99.90
7317;DHT22;3699;51.462;6.696;2024-01-07T05:28:40;2.50;99.90
7317;DHT22;3699;51.462;6.696;2024-01-07T05:31:14;2.50;99.90
7317;DHT22;3699;51.462;6.696;2024-01-07T05:33:41;2.50;99.90
7317;DHT22;3699;51.462;6.696;2024-01-07T05:36:07;2.50;99.90
7317;DHT22;3699;51.462;6.696;2024-01-07T05:38:34;2.50;99.90
7317;DHT22;3699;51.462;6.696;2024-01-07T05:41:01;2.50;99.90
7317;DHT22;3699;51.462;6.696;2024-01-07T05:43:29;2.40;99.90
7317;DHT22;3699;51.462;6.696;2024-01-07T05:45:56;2.40;99.90
7317;DHT22;3699;51.462;6.696;2024-01-07T05:48:23;2.30;99.90
7317;DHT22;3699;51.462;6.696;2024-01-07T05:50:49;2.40;99.90
7317;DHT22;3699;51.462;6.696;2024-01-07T05:53:17;2.40;99.90
7317;DHT22;3699;51.462;6.696;2024-01-07T05:55:44;2.40;99.90
7317;DHT22;3699;51.462;6.696;2024-01-07T05:58:11;2.50;99.90
7317;DHT22;3699;51.462;6.696;2024-01-07T06:00:39;2.50;99.90
7317;DHT22;3699;51.462;6.696;2024-01-07T06:03:06;2.80;99.90
7317;DHT22;3699;51.462;6.696;2024-01-07T06:05:33;2.50;99.90
7317;DHT22;3699;51.462;6.696;2024-01-07T06:07:59;2.50;99.90
7317;DHT22;3699;51.462;6.696;2024-01-07T06:10:26;2.50;99.90
7317;DHT22;3699;51.462;6.696;2024-01-07T06:12:53;2.50;99.90
7317;DHT22;3699;51.462;6.696;2024-01-07T06:15:19;2.50;99.90
7317;DHT22;3699;51.462;6.696;2024-01-07T06:17:47;2.60;99.90
7317;DHT22;3699;51.462;6.696;2024-01-07T06:20:15;2.50;99.90
7317;DHT22;3699;51.462;6.696;2024-01-07T06:22:41;2.40;99.90
7317;DHT22;3699;51.462;6.696;2024-01-07T06:25:08;2.40;99.90
7317;DHT22;3699;51.462;6.696;2024-01-07T06:27:35;2.30;99.90
7317;DHT22;3699;51.462;6.696;2024-01-07T06:30:03;2.30;99.90
7317;DHT22;3699;51.462;6.696;2024-01-07T06:32:29;2.30;99.90
7317;DHT22;3699;51.462;6.696;2024-01-07T06:34:59;2.30;99.90
7317;DHT22;3699;51.462;6.696;2024-01-07T06:37:25;2.30;99.90
7317;DHT22;3699;51.462;6.696;2024-01-07T06:39:54;2.20;99.90
7317;DHT22;3699;51.462;6.696;2024-01-07T06:42:21;2.20;99.90
7317;DHT22;3699;51.462;6.696;2024-01-07T06:44:48;2.20;99.90
7317;DHT22;3699;51.462;6.696;2024-01-07T06:47:14;2.20;99.90
7317;DHT22;3699;51.462;6.696;2024-01-07T06:49:41;2.30;99.90
7317;DHT22;3699;51.462;6.696;2024-01-07T06:52:09;2.30;99.90
7317;DHT22;3699;51.462;6.696;2024-01-07T06:54:36;2.40;99.90
7317;DHT22;3699;51.462;6.696;2024-01-07T06:57:04;2.40;99.90
7317;DHT22;3699;51.462;6.696;2024-01-07T06:59:31;2.30;99.90
7317;DHT22;3699;51.462;6.696;2024-01-07T07:01:58;2.40;99.90
7317;DHT22;3699;51.462;6.696;2024-01-07T07:04:24;2.30;99.90
7317;DHT22;3699;51.462;6.696;2024-01-07T07:06:51;2.30;99.90
7317;DHT22;3699;51.462;6.696;2024-01-07T07:09:20;2.30;99.90
7317;DHT22;3699;51.462;6.696;2024-01-07T07:11:46;2.30;99.90
7317;DHT22;3699;51.462;6.696;2024-01-07T07:14:13;2.30;99.90
7317;DHT22;3699;51.462;6.696;2024-01-07T07:16:40;2.30;99.90
7317;DHT22;3699;51.462;6.696;2024-01-07T07:19:07;2.20;99.90
7317;DHT22;3699;51.462;6.696;2024-01-07T07:21:33;2.20;99.90
7317;DHT22;3699;51.462;6.696;2024-01-07T07:24:00;2.20;99.90
7317;DHT22;3699;51.462;6.696;2024-01-07T07:26:28;2.30;99.90
7317;DHT22;3699;51.462;6.696;2024-01-07T07:28:55;2.30;99.90
7317;DHT22;3699;51.462;6.696;2024-01-07T07:31:21;2.20;99.90
7317;DHT22;3699;51.462;6.696;2024-01-07T07:33:48;2.20;99.90
7317;DHT22;3699;51.462;6.696;2024-01-07T07:36:15;2.30;99.90
7317;DHT22;3699;51.462;6.696;2024-01-07T07:41:09;2.40;99.90
7317;DHT22;3699;51.462;6.696;2024-01-07T07:43:37;2.10;99.90
7317;DHT22;3699;51.462;6.696;2024-01-07T07:46:04;2.20;99.90
7317;DHT22;3699;51.462;6.696;2024-01-07T07:48:31;2.10;99.90
7317;DHT22;3699;51.462;6.696;2024-01-07T07:50:57;2.10;99.90
7317;DHT22;3699;51.462;6.696;2024-01-07T07:53:24;2.10;99.90
7317;DHT22;3699;51.462;6.696;2024-01-07T07:55:51;2.10;99.90
7317;DHT22;3699;51.462;6.696;2024-01-07T07:58:17;2.10;99.90
7317;DHT22;3699;51.462;6.696;2024-01-07T08:00:47;2.40;99.90
7317;DHT22;3699;51.462;6.696;2024-01-07T08:03:14;2.10;99.90
7317;DHT22;3699;51.462;6.696;2024-01-07T08:05:41;2.00;99.90
7317;DHT22;3699;51.462;6.696;2024-01-07T08:08:08;2.00;99.90
7317;DHT22;3699;51.462;6.696;2024-01-07T08:10:35;2.00;99.90
7317;DHT22;3699;51.462;6.696;2024-01-07T08:13:01;2.10;99.90
7317;DHT22;3699;51.462;6.696;2024-01-07T08:15:28;2.10;99.90
7317;DHT22;3699;51.462;6.696;2024-01-07T08:17:56;2.10;99.90
7317;DHT22;3699;51.462;6.696;2024-01-07T08:20:23;2.20;99.90
7317;DHT22;3699;51.462;6.696;2024-01-07T08:22:50;2.20;99.90
7317;DHT22;3699;51.462;6.696;2024-01-07T08:25:17;2.20;99.90
7317;DHT22;3699;51.462;6.696;2024-01-07T08:27:43;2.20;99.90
7317;DHT22;3699;51.462;6.696;2024-01-07T08:30:11;2.20;99.90
7317;DHT22;3699;51.462;6.696;2024-01-07T08:32:39;2.20;99.90
7317;DHT22;3699;51.462;6.696;2024-01-07T08:35:07;2.20;99.90
7317;DHT22;3699;51.462;6.696;2024-01-07T08:37:35;2.30;99.90
7317;DHT22;3699;51.462;6.696;2024-01-07T08:40:02;2.30;99.90
7317;DHT22;3699;51.462;6.696;2024-01-07T08:42:28;2.70;99.90
7317;DHT22;3699;51.462;6.696;2024-01-07T08:44:56;2.70;99.90
7317;DHT22;3699;51.462;6.696;2024-01-07T08:47:24;2.30;99.90
7317;DHT22;3699;51.462;6.696;2024-01-07T08:49:50;2.30;99.90
7317;DHT22;3699;51.462;6.696;2024-01-07T08:52:20;2.30;99.90
7317;DHT22;3699;51.462;6.696;2024-01-07T08:54:47;2.30;99.90
7317;DHT22;3699;51.462;6.696;2024-01-07T08:57:14;2.30;99.90
7317;DHT22;3699;51.462;6.696;2024-01-07T08:59:41;2.30;99.90
7317;DHT22;3699;51.462;6.696;2024-01-07T09:02:08;2.20;99.90
7317;DHT22;3699;51.462;6.696;2024-01-07T09:04:34;2.20;99.90
7317;DHT22;3699;51.462;6.696;2024-01-07T09:07:01;2.20;99.90
7317;DHT22;3699;51.462;6.696;2024-01-07T09:09:29;2.20;99.90
7317;DHT22;3699;51.462;6.696;2024-01-07T09:11:56;2.20;99.90
7317;DHT22;3699;51.462;6.696;2024-01-07T09:14:24;2.20;99.90
7317;DHT22;3699;51.462;6.696;2024-01-07T09:16:51;2.40;99.90
7317;DHT22;3699;51.462;6.696;2024-01-07T09:19:19;2.30;99.90
7317;DHT22;3699;51.462;6.696;2024-01-07T09:21:45;2.30;99.90
7317;DHT22;3699;51.462;6.696;2024-01-07T09:24:12;2.30;99.90
7317;DHT22;3699;51.462;6.696;2024-01-07T09:26:40;2.40;99.90
7317;DHT22;3699;51.462;6.696;2024-01-07T09:29:07;2.30;99.90
7317;DHT22;3699;51.462;6.696;2024-01-07T09:31:33;2.40;99.90
7317;DHT22;3699;51.462;6.696;2024-01-07T09:34:01;2.20;99.90
7317;DHT22;3699;51.462;6.696;2024-01-07T09:36:29;2.20;99.90
7317;DHT22;3699;51.462;6.696;2024-01-07T09:38:56;2.00;99.90
7317;DHT22;3699;51.462;6.696;2024-01-07T09:41:22;2.10;99.90
7317;DHT22;3699;51.462;6.696;2024-01-07T09:43:51;2.20;99.90
7317;DHT22;3699;51.462;6.696;2024-01-07T09:46:18;2.10;99.90
7317;DHT22;3699;51.462;6.696;2024-01-07T09:48:45;2.20;99.90
7317;DHT22;3699;51.462;6.696;2024-01-07T09:51:12;2.10;99.90
7317;DHT22;3699;51.462;6.696;2024-01-07T09:53:39;2.10;99.90
7317;DHT22;3699;51.462;6.696;2024-01-07T09:56:12;2.20;99.90
7317;DHT22;3699;51.462;6.696;2024-01-07T09:58:41;2.20;99.90
7317;DHT22;3699;51.462;6.696;2024-01-07T10:01:10;2.20;99.90
7317;DHT22;3699;51.462;6.696;2024-01-07T10:03:36;2.20;99.90
7317;DHT22;3699;51.462;6.696;2024-01-07T10:06:04;2.20;99.90
7317;DHT22;3699;51.462;6.696;2024-01-07T10:08:31;2.10;99.90
7317;DHT22;3699;51.462;6.696;2024-01-07T10:10:58;2.00;99.90
7317;DHT22;3699;51.462;6.696;2024-01-07T10:13:27;2.20;99.90
7317;DHT22;3699;51.462;6.696;2024-01-07T10:15:54;2.00;99.90
7317;DHT22;3699;51.462;6.696;2024-01-07T10:18:22;2.00;99.90
7317;DHT22;3699;51.462;6.696;2024-01-07T10:20:49;1.80;99.90
7317;DHT22;3699;51.462;6.696;2024-01-07T10:26:39;2.00;99.90
7317;DHT22;3699;51.462;6.696;2024-01-07T10:29:06;2.00;99.90
7317;DHT22;3699;51.462;6.696;2024-01-07T10:31:33;1.90;99.90
7317;DHT22;3699;51.462;6.696;2024-01-07T10:34:01;2.00;99.90
7317;DHT22;3699;51.462;6.696;2024-01-07T10:36:29;2.00;99.90
7317;DHT22;3699;51.462;6.696;2024-01-07T10:38:57;2.10;99.90
7317;DHT22;3699;51.462;6.696;2024-01-07T10:41:25;2.00;99.90
7317;DHT22;3699;51.462;6.696;2024-01-07T10:43:52;2.00;99.90
7317;DHT22;3699;51.462;6.696;2024-01-07T10:49:44;2.10;99.90
7317;DHT22;3699;51.462;6.696;2024-01-07T10:52:16;2.00;99.90
7317;DHT22;3699;51.462;6.696;2024-01-07T10:54:44;1.90;99.90
7317;DHT22;3699;51.462;6.696;2024-01-07T10:57:19;2.00;99.90
7317;DHT22;3699;51.462;6.696;2024-01-07T10:59:50;1.90;99.90
7317;DHT22;3699;51.462;6.696;2024-01-07T11:02:18;1.90;99.90
7317;DHT22;3699;51.462;6.696;2024-01-07T11:04:51;2.10;99.90
7317;DHT22;3699;51.462;6.696;2024-01-07T11:07:27;1.80;99.90
7317;DHT22;3699;51.462;6.696;2024-01-07T11:10:05;1.80;99.90
7317;DHT22;3699;51.462;6.696;2024-01-07T11:12:32;1.80;99.90
7317;DHT22;3699;51.462;6.696;2024-01-07T11:14:59;3.20;99.90
7317;DHT22;3699;51.462;6.696;2024-01-07T11:17:41;1.80;99.90
7317;DHT22;3699;51.462;6.696;2024-01-07T11:20:21;1.90;99.90
7317;DHT22;3699;51.462;6.696;2024-01-07T11:22:48;1.90;99.90
7317;DHT22;3699;51.462;6.696;2024-01-07T11:25:31;1.80;99.90
7317;DHT22;3699;51.462;6.696;2024-01-07T11:27:58;1.90;99.90
7317;DHT22;3699;51.462;6.696;2024-01-07T11:30:25;3.00;99.90
7317;DHT22;3699;51.462;6.696;2024-01-07T11:32:56;2.00;99.90
7317;DHT22;3699;51.462;6.696;2024-01-07T11:35:55;2.00;99.90
7317;DHT22;3699;51.462;6.696;2024-01-07T11:38:23;2.10;99.90
7317;DHT22;3699;51.462;6.696;2024-01-07T11:40:50;2.00;99.90
7317;DHT22;3699;51.462;6.696;2024-01-07T11:43:17;2.10;99.90
7317;DHT22;3699;51.462;6.696;2024-01-07T11:45:44;2.10;99.90
7317;DHT22;3699;51.462;6.696;2024-01-07T11:48:11;2.10;99.90
7317;DHT22;3699;51.462;6.696;2024-01-07T11:50:37;2.20;99.90
7317;DHT22;3699;51.462;6.696;2024-01-07T11:53:06;4.10;99.90
7317;DHT22;3699;51.462;6.696;2024-01-07T11:55:33;2.10;99.90
7317;DHT22;3699;51.462;6.696;2024-01-07T11:58:01;2.20;99.90
7317;DHT22;3699;51.462;6.696;2024-01-07T12:00:31;2.20;99.90
7317;DHT22;3699;51.462;6.696;2024-01-07T12:02:57;2.20;99.90
7317;DHT22;3699;51.462;6.696;2024-01-07T12:05:24;2.20;99.90
7317;DHT22;3699;51.462;6.696;2024-01-07T12:07:51;2.20;99.90
7317;DHT22;3699;51.462;6.696;2024-01-07T12:10:19;2.20;99.90
7317;DHT22;3699;51.462;6.696;2024-01-07T12:12:46;2.60;99.90
7317;DHT22;3699;51.462;6.696;2024-01-07T12:15:14;2.10;99.90
7317;DHT22;3699;51.462;6.696;2024-01-07T12:17:41;1.90;99.90
7317;DHT22;3699;51.462;6.696;2024-01-07T12:20:09;1.90;99.90
7317;DHT22;3699;51.462;6.696;2024-01-07T12:22:37;1.80;99.90
7317;DHT22;3699;51.462;6.696;2024-01-07T12:25:06;1.70;99.90
7317;DHT22;3699;51.462;6.696;2024-01-07T12:27:35;1.70;99.90
7317;DHT22;3699;51.462;6.696;2024-01-07T12:30:02;1.80;99.90
7317;DHT22;3699;51.462;6.696;2024-01-07T12:32:31;1.90;99.90
7317;DHT22;3699;51.462;6.696;2024-01-07T12:34:58;2.10;99.90
7317;DHT22;3699;51.462;6.696;2024-01-07T12:37:26;2.10;99.90
7317;DHT22;3699;51.462;6.696;2024-01-07T12:39:53;2.10;99.90
7317;DHT22;3699;51.462;6.696;2024-01-07T12:42:20;1.80;99.90
7317;DHT22;3699;51.462;6.696;2024-01-07T12:44:49;2.10;99.90
7317;DHT22;3699;51.462;6.696;2024-01-07T12:47:16;2.00;99.90
7317;DHT22;3699;51.462;6.696;2024-01-07T12:49:42;2.00;99.90
7317;DHT22;3699;51.462;6.696;2024-01-07T12:52:09;2.00;99.90
7317;DHT22;3699;51.462;6.696;2024-01-07T12:54:37;1.90;99.90
7317;DHT22;3699;51.462;6.696;2024-01-07T12:57:05;1.80;99.90
7317;DHT22;3699;51.462;6.696;2024-01-07T12:59:31;1.80;99.90
7317;DHT22;3699;51.462;6.696;2024-01-07T13:01:59;1.70;99.90
7317;DHT22;3699;51.462;6.696;2024-01-07T13:04:26;1.70;99.90
7317;DHT22;3699;51.462;6.696;2024-01-07T13:06:53;1.60;99.90
7317;DHT22;3699;51.462;6.696;2024-01-07T13:09:20;1.50;99.90
7317;DHT22;3699;51.462;6.696;2024-01-07T13:11:47;1.60;99.90
7317;DHT22;3699;51.462;6.696;2024-01-07T13:14:14;1.60;99.90
7317;DHT22;3699;51.462;6.696;2024-01-07T13:19:47;1.50;99.90
7317;DHT22;3699;51.462;6.696;2024-01-07T13:22:14;1.50;99.90
7317;DHT22;3699;51.462;6.696;2024-01-07T13:24:41;1.60;99.90
7317;DHT22;3699;51.462;6.696;2024-01-07T13:27:07;1.50;99.90
7317;DHT22;3699;51.462;6.696;2024-01-07T13:29:34;1.50;99.90
7317;DHT22;3699;51.462;6.696;2024-01-07T13:32:01;1.40;99.90
7317;DHT22;3699;51.462;6.696;2024-01-07T13:34:28;1.40;99.90
7317;DHT22;3699;51.462;6.696;2024-01-07T13:36:56;1.30;99.90
7317;DHT22;3699;51.462;6.696;2024-01-07T13:39:23;1.30;99.90
7317;DHT22;3699;51.462;6.696;2024-01-07T13:41:50;1.30;99.90
7317;DHT22;3699;51.462;6.696;2024-01-07T13:44:17;1.30;99.90
7317;DHT22;3699;51.462;6.696;2024-01-07T13:46:44;1.40;99.90
7317;DHT22;3699;51.462;6.696;2024-01-07T13:49:12;1.40;99.90
7317;DHT22;3699;51.462;6.696;2024-01-07T13:51:38;1.50;99.90
7317;DHT22;3699;51.462;6.696;2024-01-07T13:54:07;1.50;99.90
7317;DHT22;3699;51.462;6.696;2024-01-07T13:56:36;1.30;99.90
7317;DHT22;3699;51.462;6.696;2024-01-07T13:59:03;1.30;99.90
7317;DHT22;3699;51.462;6.696;2024-01-07T14:01:30;1.30;99.90
7317;DHT22;3699;51.462;6.696;2024-01-07T14:03:57;1.30;99.90
7317;DHT22;3699;51.462;6.696;2024-01-07T14:06:24;1.40;99.90
7317;DHT22;3699;51.462;6.696;2024-01-07T14:08:51;1.20;99.90
7317;DHT22;3699;51.462;6.696;2024-01-07T14:11:20;1.20;99.90
7317;DHT22;3699;51.462;6.696;2024-01-07T14:13:47;1.20;99.90
7317;DHT22;3699;51.462;6.696;2024-01-07T14:16:14;1.40;99.90
7317;DHT22;3699;51.462;6.696;2024-01-07T14:18:41;1.30;99.90
7317;DHT22;3699;51.462;6.696;2024-01-07T14:21:08;1.30;99.90
7317;DHT22;3699;51.462;6.696;2024-01-07T14:23:36;1.40;99.90
7317;DHT22;3699;51.462;6.696;2024-01-07T14:26:03;1.20;99.90
7317;DHT22;3699;51.462;6.696;2024-01-07T14:28:31;1.30;99.90
7317;DHT22;3699;51.462;6.696;2024-01-07T14:30:58;1.30;99.90
7317;DHT22;3699;51.462;6.696;2024-01-07T14:33:24;1.40;99.90
7317;DHT22;3699;51.462;6.696;2024-01-07T14:35:51;0.00;99.90
7317;DHT22;3699;51.462;6.696;2024-01-07T14:38:18;1.30;99.90
7317;DHT22;3699;51.462;6.696;2024-01-07T14:40:45;1.50;99.90
7317;DHT22;3699;51.462;6.696;2024-01-07T14:43:12;1.20;99.90
7317;DHT22;3699;51.462;6.696;2024-01-07T14:45:40;1.30;99.90
7317;DHT22;3699;51.462;6.696;2024-01-07T14:48:07;1.40;99.90
7317;DHT22;3699;51.462;6.696;2024-01-07T14:50:34;1.50;99.90
7317;DHT22;3699;51.462;6.696;2024-01-07T14:53:01;1.40;99.90
7317;DHT22;3699;51.462;6.696;2024-01-07T14:55:28;1.40;99.90
7317;DHT22;3699;51.462;6.696;2024-01-07T14:57:55;1.60;99.90
7317;DHT22;3699;51.462;6.696;2024-01-07T15:00:22;1.40;99.90
7317;DHT22;3699;51.462;6.696;2024-01-07T15:02:50;1.40;99.90
7317;DHT22;3699;51.462;6.696;2024-01-07T15:05:17;1.40;99.90
7317;DHT22;3699;51.462;6.696;2024-01-07T15:07:44;1.30;99.90
7317;DHT22;3699;51.462;6.696;2024-01-07T15:10:15;1.30;99.90
7317;DHT22;3699;51.462;6.696;2024-01-07T15:12:42;2.90;99.90
7317;DHT22;3699;51.462;6.696;2024-01-07T15:15:09;1.40;99.90
7317;DHT22;3699;51.462;6.696;2024-01-07T15:17:36;1.30;99.90
7317;DHT22;3699;51.462;6.696;2024-01-07T15:20:06;1.30;99.90
7317;DHT22;3699;51.462;6.696;2024-01-07T15:22:33;1.30;99.90
7317;DHT22;3699;51.462;6.696;2024-01-07T15:25:00;1.30;99.90
7317;DHT22;3699;51.462;6.696;2024-01-07T15:27:27;1.40;99.90
7317;DHT22;3699;51.462;6.696;2024-01-07T15:29:54;3.00;99.90
7317;DHT22;3699;51.462;6.696;2024-01-07T15:32:21;1.40;99.90
7317;DHT22;3699;51.462;6.696;2024-01-07T15:34:48;1.50;99.90
7317;DHT22;3699;51.462;6.696;2024-01-07T15:37:16;1.40;99.90
7317;DHT22;3699;51.462;6.696;2024-01-07T15:39:43;1.40;99.90
7317;DHT22;3699;51.462;6.696;2024-01-07T15:42:10;1.40;99.90
7317;DHT22;3699;51.462;6.696;2024-01-07T15:44:36;1.50;99.90
7317;DHT22;3699;51.462;6.696;2024-01-07T15:47:03;1.60;99.90
7317;DHT22;3699;51.462;6.696;2024-01-07T15:49:31;1.40;99.90
7317;DHT22;3699;51.462;6.696;2024-01-07T15:51:57;1.60;99.90
7317;DHT22;3699;51.462;6.696;2024-01-07T15:54:25;1.40;99.90
7317;DHT22;3699;51.462;6.696;2024-01-07T15:56:52;1.50;99.90
7317;DHT22;3699;51.462;6.696;2024-01-07T15:59:20;1.50;99.90
7317;DHT22;3699;51.462;6.696;2024-01-07T16:01:47;1.40;99.90
7317;DHT22;3699;51.462;6.696;2024-01-07T16:04:14;1.40;99.90
7317;DHT22;3699;51.462;6.696;2024-01-07T16:06:41;1.50;99.90
7317;DHT22;3699;51.462;6.696;2024-01-07T16:09:11;1.50;99.90
7317;DHT22;3699;51.462;6.696;2024-01-07T16:11:40;1.50;99.90
7317;DHT22;3699;51.462;6.696;2024-01-07T16:14:08;1.50;99.90
7317;DHT22;3699;51.462;6.696;2024-01-07T16:16:35;1.50;99.90
7317;DHT22;3699;51.462;6.696;2024-01-07T16:19:07;1.70;99.90
7317;DHT22;3699;51.462;6.696;2024-01-07T16:21:34;1.40;99.90
7317;DHT22;3699;51.462;6.696;2024-01-07T16:24:01;1.50;99.90
7317;DHT22;3699;51.462;6.696;2024-01-07T16:26:28;1.50;99.90
7317;DHT22;3699;51.462;6.696;2024-01-07T16:28:56;1.50;99.90
7317;DHT22;3699;51.462;6.696;2024-01-07T16:31:23;1.50;99.90
7317;DHT22;3699;51.462;6.696;2024-01-07T16:33:50;1.50;99.90
7317;DHT22;3699;51.462;6.696;2024-01-07T16:36:16;1.60;99.90
7317;DHT22;3699;51.462;6.696;2024-01-07T16:38:43;1.50;99.90
7317;DHT22;3699;51.462;6.696;2024-01-07T16:41:10;1.50;99.90
7317;DHT22;3699;51.462;6.696;2024-01-07T16:43:39;1.60;99.90
7317;DHT22;3699;51.462;6.696;2024-01-07T16:46:07;1.50;99.90